Time;durP1;ratioP1;P1;durP2;ratioP2;P2;SDS_P1;SDS_P2;PMS_P1;PMS_P2;Temp;Humidity;BMP_temperature;BMP_pressure;BME280_temperature;BME280_humidity;BME280_pressure;Samples;Min_cycle;Max_cycle;Signal;HPM_P1;HPM_P2
2021/07/07 00:00:26;;;;;;;10.80;8.93;;;;;;;17.25;100.00;95777.25;1036253;28;20021;-50
2021/07/07 00:00:58;;;;;;;12.23;9.82;;;;;;;17.30;100.00;95771.47;1036519;28;20033;-48
2021/07/07 00:01:29;;;;;;;11.30;8.93;;;;;;;17.30;100.00;95771.47;1036257;28;20105;-49
2021/07/07 00:02:00;;;;;;;14.35;9.90;;;;;;;17.27;100.00;95774.44;1036621;28;20018;-47
2021/07/07 00:02:30;;;;;;;12.35;9.30;;;;;;;17.20;100.00;95762.78;1036272;28;20010;-49
2021/07/07 00:03:01;;;;;;;10.13;7.85;;;;;;;17.24;100.00;95777.38;1036420;28;20021;-47
2021/07/07 00:03:32;;;;;;;11.95;8.65;;;;;;;17.19;100.00;95769.91;1035982;28;20032;-47
2021/07/07 00:04:02;;;;;;;11.57;8.65;;;;;;;17.14;100.00;95766.88;1036333;28;20014;-48
2021/07/07 00:04:33;;;;;;;10.27;8.20;;;;;;;17.17;100.00;95771.84;1036376;28;20014;-49
2021/07/07 00:05:05;;;;;;;12.07;8.63;;;;;;;17.18;100.00;95768.25;1032173;28;20010;-48
2021/07/07 00:05:36;;;;;;;12.45;8.15;;;;;;;17.21;100.00;95764.44;1032208;28;20376;-49
2021/07/07 00:06:07;;;;;;;12.32;8.82;;;;;;;17.15;100.00;95762.41;1032254;28;20015;-49
2021/07/07 00:06:37;;;;;;;11.52;8.85;;;;;;;17.15;100.00;95762.41;1032520;28;20010;-49
2021/07/07 00:07:08;;;;;;;13.50;8.48;;;;;;;17.21;100.00;95759.16;1036520;28;20049;-49
2021/07/07 00:07:39;;;;;;;10.35;7.30;;;;;;;17.22;100.00;95759.00;1036490;28;20089;-48
2021/07/07 00:08:09;;;;;;;8.77;7.18;;;;;;;17.18;100.00;95757.66;1036539;28;20026;-48
2021/07/07 00:08:40;;;;;;;8.10;7.07;;;;;;;17.14;100.00;95753.66;1036396;28;20045;-48
2021/07/07 00:09:10;;;;;;;8.43;6.63;;;;;;;17.14;100.00;95753.66;1036323;28;20021;-48
2021/07/07 00:09:41;;;;;;;9.43;7.90;;;;;;;17.15;100.00;95757.94;1036331;28;20013;-48
2021/07/07 00:10:14;;;;;;;13.85;8.52;;;;;;;17.17;100.00;95757.81;1036554;28;20022;-49
2021/07/07 00:10:44;;;;;;;12.98;9.90;;;;;;;17.13;100.00;95754.63;1036415;28;20014;-51
2021/07/07 00:11:15;;;;;;;13.10;9.02;;;;;;;17.15;100.00;95757.13;1036312;28;20010;-49
2021/07/07 00:11:46;;;;;;;11.05;8.07;;;;;;;17.17;100.00;95749.84;1036522;28;20085;-48
2021/07/07 00:12:16;;;;;;;9.02;7.45;;;;;;;17.11;100.00;95751.31;1036488;28;20373;-47
2021/07/07 00:12:47;;;;;;;9.43;7.40;;;;;;;17.12;100.00;95745.03;1036358;28;20084;-48
2021/07/07 00:13:18;;;;;;;10.98;8.32;;;;;;;17.15;100.00;95751.81;1036396;28;20018;-48
2021/07/07 00:13:49;;;;;;;9.80;8.20;;;;;;;17.18;100.00;95746.22;1035797;28;20026;-49
2021/07/07 00:14:20;;;;;;;12.07;8.50;;;;;;;17.15;100.00;95747.34;1036548;28;20018;-48
2021/07/07 00:14:50;;;;;;;10.25;7.60;;;;;;;17.13;100.00;95749.31;1036329;28;20407;-48
2021/07/07 00:15:21;;;;;;;12.50;8.02;;;;;;;17.15;100.00;95747.34;1036425;28;20089;-48
2021/07/07 00:15:52;;;;;;;10.88;8.50;;;;;;;17.16;100.00;95749.03;1036544;28;20069;-49
2021/07/07 00:16:23;;;;;;;12.55;8.85;;;;;;;17.20;100.00;95752.22;1036462;28;20383;-48
2021/07/07 00:16:53;;;;;;;11.88;8.35;;;;;;;17.17;100.00;95755.97;1036488;28;20026;-48
2021/07/07 00:17:24;;;;;;;12.77;8.68;;;;;;;17.18;100.00;95760.28;1036174;28;20014;-48
2021/07/07 00:17:54;;;;;;;9.80;7.65;;;;;;;17.16;100.00;95759.63;1036526;28;20049;-48
2021/07/07 00:18:25;;;;;;;9.13;7.15;;;;;;;17.19;100.00;95763.78;1036422;28;20045;-49
2021/07/07 00:18:56;;;;;;;9.50;7.57;;;;;;;17.19;100.00;95761.97;1036239;28;20010;-49
2021/07/07 00:19:26;;;;;;;9.50;7.55;;;;;;;17.18;100.00;95760.28;1035643;28;20040;-48
2021/07/07 00:19:57;;;;;;;13.18;8.27;;;;;;;17.17;100.00;95763.91;1036442;28;20413;-48
2021/07/07 00:20:34;;;;;;;12.38;8.95;;;;;;;17.15;100.00;95757.94;1036433;28;20045;-49
2021/07/07 00:21:05;;;;;;;11.88;9.10;;;;;;;17.17;100.00;95763.91;1036256;28;20049;-50
2021/07/07 00:21:36;;;;;;;14.32;8.15;;;;;;;17.20;100.00;95763.63;1036324;28;20017;-47
2021/07/07 00:22:06;;;;;;;11.32;8.25;;;;;;;17.14;100.00;95766.88;1036463;28;20024;-48
2021/07/07 00:22:37;;;;;;;9.50;8.35;;;;;;;17.16;100.00;95759.63;1036346;28;20025;-50
2021/07/07 00:23:08;;;;;;;11.15;7.45;;;;;;;17.17;100.00;95763.09;1036408;28;20156;-48
2021/07/07 00:23:38;;;;;;;10.82;7.65;;;;;;;17.17;100.00;95761.28;1035583;28;20142;-47
2021/07/07 00:24:11;;;;;;;9.55;7.22;;;;;;;17.16;100.00;95764.09;1036528;28;20532;-50
2021/07/07 00:24:42;;;;;;;10.95;8.07;;;;;;;17.09;100.00;95759.38;1036361;28;20021;-46
2021/07/07 00:25:13;;;;;;;10.00;7.40;;;;;;;17.10;100.00;95760.25;1036327;28;20188;-48
2021/07/07 00:25:44;;;;;;;10.35;7.70;;;;;;;17.15;100.00;95755.31;1036266;28;20021;-48
2021/07/07 00:26:15;;;;;;;10.52;7.93;;;;;;;17.18;100.00;95762.13;1036482;28;20026;-50
2021/07/07 00:26:45;;;;;;;9.50;7.18;;;;;;;17.16;100.00;95754.31;1036478;28;20013;-49
2021/07/07 00:27:16;;;;;;;10.68;6.63;;;;;;;17.15;100.00;95757.94;1036218;28;20021;-48
2021/07/07 00:27:47;;;;;;;7.88;5.80;;;;;;;17.12;100.00;95757.41;1036343;28;20033;-48
2021/07/07 00:28:18;;;;;;;9.57;6.65;;;;;;;17.13;100.00;95759.09;1036481;28;20371;-49
2021/07/07 00:28:48;;;;;;;7.22;5.63;;;;;;;17.14;100.00;95758.13;1036465;28;20037;-48
2021/07/07 00:29:19;;;;;;;9.40;5.30;;;;;;;17.09;100.00;95758.56;1036172;28;20041;-49
2021/07/07 00:29:51;;;;;;;7.10;5.07;;;;;;;17.04;100.00;95753.75;1031934;28;20035;-49
2021/07/07 00:30:22;;;;;;;5.40;4.35;;;;;;;17.00;100.00;95762.13;1032139;28;20034;-49
2021/07/07 00:30:53;;;;;;;7.85;5.55;;;;;;;17.01;100.00;95756.69;1032125;28;20101;-48
2021/07/07 00:31:24;;;;;;;10.70;5.68;;;;;;;17.00;100.00;95762.13;1032399;28;20392;-48
2021/07/07 00:31:54;;;;;;;10.85;5.82;;;;;;;17.03;100.00;95764.47;1036257;28;20018;-49
2021/07/07 00:32:26;;;;;;;8.18;6.20;;;;;;;17.00;100.00;95764.78;1032063;28;20388;-48
2021/07/07 00:32:57;;;;;;;7.90;5.00;;;;;;;16.96;100.00;95763.41;1032101;28;20097;-48
2021/07/07 00:33:28;;;;;;;7.50;4.97;;;;;;;17.02;100.00;95758.34;1031764;28;20018;-49
2021/07/07 00:33:59;;;;;;;8.25;4.68;;;;;;;17.02;100.00;95760.16;1032021;28;20515;-48
2021/07/07 00:34:30;;;;;;;7.88;5.07;;;;;;;17.00;100.00;95756.84;1036453;28;20014;-52
2021/07/07 00:35:00;;;;;;;5.90;4.55;;;;;;;17.04;100.00;95753.75;1036394;28;20025;-47
2021/07/07 00:35:31;;;;;;;6.97;4.78;;;;;;;17.01;100.00;95753.22;1036340;28;20483;-49
2021/07/07 00:36:03;;;;;;;7.32;4.68;;;;;;;16.98;100.00;95761.44;1035943;28;20140;-51
2021/07/07 00:36:34;;;;;;;8.45;4.72;;;;;;;16.94;100.00;95760.91;1036375;28;20484;-47
2021/07/07 00:37:04;;;;;;;6.45;4.53;;;;;;;16.92;100.00;95767.34;1036342;28;20014;-47
2021/07/07 00:37:35;;;;;;;7.00;4.13;;;;;;;16.88;100.00;95767.66;1036323;28;20046;-48
2021/07/07 00:38:06;;;;;;;4.35;3.03;;;;;;;16.87;100.00;95770.44;1036201;28;20022;-49
2021/07/07 00:38:36;;;;;;;6.05;3.50;;;;;;;16.86;100.00;95769.63;1036344;28;20036;-47
2021/07/07 00:39:07;;;;;;;4.22;2.63;;;;;;;16.86;100.00;95774.91;1032090;28;20105;-48
2021/07/07 00:39:38;;;;;;;4.00;2.58;;;;;;;16.87;100.00;95781.03;1032000;28;20101;-48
2021/07/07 00:40:09;;;;;;;4.25;2.92;;;;;;;16.84;100.00;95782.19;1031837;28;20029;-48
2021/07/07 00:40:41;;;;;;;6.85;3.20;;;;;;;16.85;100.00;95786.47;1032294;28;20388;-49
2021/07/07 00:41:12;;;;;;;5.50;2.97;;;;;;;16.82;100.00;95788.56;1036138;28;20021;-48
2021/07/07 00:41:43;;;;;;;5.05;2.97;;;;;;;16.83;100.00;95790.25;1036332;28;20028;-46
2021/07/07 00:42:13;;;;;;;9.32;2.80;;;;;;;16.80;100.00;95790.50;1036190;28;20036;-48
2021/07/07 00:42:44;;;;;;;5.38;2.55;;;;;;;16.80;100.00;95785.22;1036390;28;20014;-50
2021/07/07 00:43:15;;;;;;;5.20;2.63;;;;;;;16.80;100.00;95786.06;1036318;28;20017;-47
2021/07/07 00:43:46;;;;;;;5.22;2.65;;;;;;;16.77;100.00;95781.06;1035653;28;20014;-49
2021/07/07 00:44:17;;;;;;;4.20;2.60;;;;;;;16.74;100.00;95794.59;1036215;28;20018;-48
2021/07/07 00:44:47;;;;;;;3.72;2.40;;;;;;;16.75;100.00;95793.63;1036391;28;20018;-48
2021/07/07 00:45:18;;;;;;;3.95;2.60;;;;;;;16.75;100.00;95796.28;1036287;28;20049;-50
2021/07/07 00:45:48;;;;;;;4.28;2.58;;;;;;;16.77;100.00;95789.00;1036356;28;20026;-48
2021/07/07 00:46:19;;;;;;;5.00;2.60;;;;;;;16.77;100.00;95791.66;1036184;28;20101;-48
2021/07/07 00:46:50;;;;;;;4.95;2.28;;;;;;;16.73;100.00;95792.13;1036409;28;20030;-49
2021/07/07 00:47:21;;;;;;;3.65;2.33;;;;;;;16.73;100.00;95797.41;1036315;28;20036;-49
2021/07/07 00:47:51;;;;;;;4.05;2.17;;;;;;;16.69;100.00;95799.53;1036316;28;20014;-48
2021/07/07 00:48:22;;;;;;;4.00;2.42;;;;;;;16.70;100.00;95795.88;1036216;28;20018;-51
2021/07/07 00:48:53;;;;;;;6.00;2.33;;;;;;;16.70;100.00;95802.03;1036396;28;20483;-48
2021/07/07 00:49:23;;;;;;;4.63;2.25;;;;;;;16.71;100.00;95801.03;1036249;28;20010;-48
2021/07/07 00:49:54;;;;;;;4.63;2.40;;;;;;;16.68;100.00;95803.97;1036353;28;20014;-50
2021/07/07 00:50:25;;;;;;;4.25;2.30;;;;;;;16.67;100.00;95797.03;1036180;28;20010;-48
2021/07/07 00:50:56;;;;;;;5.88;2.58;;;;;;;16.69;100.00;95804.81;1036314;28;20017;-48
2021/07/07 00:51:27;;;;;;;7.40;3.00;;;;;;;16.74;100.00;95807.81;1036108;28;20018;-48
2021/07/07 00:51:58;;;;;;;3.70;2.00;;;;;;;16.74;100.00;95807.81;1036323;28;20022;-48
2021/07/07 00:52:29;;;;;;;4.15;2.47;;;;;;;16.76;100.00;95807.69;1036168;28;20080;-48
2021/07/07 00:52:59;;;;;;;7.13;2.50;;;;;;;16.70;100.00;95798.53;1036349;28;20018;-47
2021/07/07 00:53:30;;;;;;;6.28;3.00;;;;;;;16.74;100.00;95809.66;1035773;28;20044;-46
2021/07/07 00:54:01;;;;;;;4.53;2.40;;;;;;;16.70;100.00;95817.91;1036175;28;20038;-48
2021/07/07 00:54:31;;;;;;;4.70;2.00;;;;;;;16.69;100.00;95810.09;1036150;28;20522;-48
2021/07/07 00:55:05;;;;;;;5.80;2.35;;;;;;;16.70;100.00;95817.03;1036341;28;20088;-48
2021/07/07 00:55:36;;;;;;;5.20;2.35;;;;;;;16.67;100.00;95822.66;1036175;28;20044;-47
2021/07/07 00:56:09;;;;;;;4.28;2.42;;;;;;;16.68;100.00;95824.31;1036310;28;20006;-51
2021/07/07 00:56:39;;;;;;;5.53;2.60;;;;;;;16.67;100.00;95822.66;1036165;28;20097;-48
2021/07/07 00:57:11;;;;;;;5.30;2.60;;;;;;;16.67;100.00;95814.72;1036346;28;20024;-48
2021/07/07 00:57:44;;;;;;;4.15;2.30;;;;;;;16.70;100.00;95815.25;1036183;28;20018;-48
2021/07/07 00:58:15;;;;;;;9.77;2.42;;;;;;;16.71;100.00;95824.00;1036288;28;20087;-50
2021/07/07 00:58:46;;;;;;;4.47;2.40;;;;;;;16.69;100.00;95825.97;1036171;28;20099;-48
2021/07/07 00:59:19;;;;;;;6.55;2.60;;;;;;;16.69;100.00;95823.34;1036332;28;20494;-48
2021/07/07 00:59:49;;;;;;;5.65;2.90;;;;;;;16.68;100.00;95825.13;1036257;28;20431;-49
2021/07/07 01:00:21;;;;;;;6.53;3.20;;;;;;;16.70;100.00;95828.47;1036239;28;20091;-48
2021/07/07 01:00:52;;;;;;;5.50;3.00;;;;;;;16.71;100.00;95829.31;1036161;28;20105;-49
2021/07/07 01:01:23;;;;;;;7.10;2.85;;;;;;;16.74;100.00;95826.34;1036090;28;20026;-49
2021/07/07 01:01:54;;;;;;;6.78;2.80;;;;;;;16.69;100.00;95824.16;1036215;28;20445;-48
2021/07/07 01:02:24;;;;;;;4.38;2.90;;;;;;;16.69;100.00;95826.81;1031875;28;20022;-47
2021/07/07 01:02:58;;;;;;;7.55;2.97;;;;;;;16.65;100.00;95828.09;1031881;28;20158;-49
2021/07/07 01:03:28;;;;;;;4.78;2.95;;;;;;;16.63;100.00;95824.75;1031608;28;20049;-48
2021/07/07 01:03:59;;;;;;;6.43;3.15;;;;;;;16.63;100.00;95829.19;1032192;28;20101;-50
2021/07/07 01:04:30;;;;;;;6.20;3.25;;;;;;;16.66;100.00;95823.63;1036310;28;20033;-49
2021/07/07 01:05:00;;;;;;;7.13;2.97;;;;;;;16.67;100.00;95822.66;1036083;28;20049;-48
2021/07/07 01:05:31;;;;;;;5.95;3.40;;;;;;;16.68;100.00;95825.13;1036132;28;20026;-48
2021/07/07 01:06:02;;;;;;;7.10;3.00;;;;;;;16.68;100.00;95827.78;1036180;28;20033;-48
2021/07/07 01:06:32;;;;;;;7.40;2.80;;;;;;;16.70;100.00;95827.63;1036212;28;20033;-49
2021/07/07 01:07:03;;;;;;;12.10;3.45;;;;;;;16.70;100.00;95827.63;1036170;28;20022;-48
2021/07/07 01:07:34;;;;;;;4.93;3.05;;;;;;;16.69;100.00;95820.69;1036136;28;20388;-48
2021/07/07 01:08:04;;;;;;;7.10;3.20;;;;;;;16.68;100.00;95819.00;1036310;28;20021;-48
2021/07/07 01:08:35;;;;;;;5.03;3.63;;;;;;;16.67;100.00;95818.19;1036276;28;20079;-49
2021/07/07 01:09:06;;;;;;;6.30;3.30;;;;;;;16.71;100.00;95822.19;1036101;28;20076;-48
2021/07/07 01:09:36;;;;;;;7.15;3.55;;;;;;;16.75;100.00;95814.78;1035975;28;20533;-48
2021/07/07 01:10:08;;;;;;;5.45;3.38;;;;;;;16.78;100.00;95816.28;1036178;28;20029;-50
2021/07/07 01:10:39;;;;;;;6.85;3.63;;;;;;;16.79;100.00;95815.31;1036219;28;20014;-50
2021/07/07 01:11:10;;;;;;;6.60;3.97;;;;;;;16.74;100.00;95815.75;1035992;28;20400;-48
2021/07/07 01:11:40;;;;;;;4.95;3.38;;;;;;;16.72;100.00;95823.00;1036129;28;20494;-47
2021/07/07 01:12:11;;;;;;;7.85;3.88;;;;;;;16.69;100.00;95823.34;1036311;28;20045;-48
2021/07/07 01:12:42;;;;;;;6.72;3.20;;;;;;;16.67;100.00;95830.59;1031846;28;20045;-46
2021/07/07 01:13:13;;;;;;;7.30;3.60;;;;;;;16.66;100.00;95829.72;1031716;28;20018;-49
2021/07/07 01:13:44;;;;;;;5.43;3.47;;;;;;;16.67;100.00;95830.59;1031175;28;20472;-48
2021/07/07 01:14:15;;;;;;;7.70;3.63;;;;;;;16.64;100.00;95831.69;1032211;28;20022;-48
2021/07/07 01:14:45;;;;;;;7.82;3.30;;;;;;;16.63;100.00;95840.63;1036287;28;20056;-48
2021/07/07 01:15:17;;;;;;;5.57;3.08;;;;;;;16.63;100.00;95838.00;1036107;28;20071;-48
2021/07/07 01:15:48;;;;;;;7.18;3.50;;;;;;;16.64;100.00;95849.41;1036134;28;20029;-48
2021/07/07 01:16:18;;;;;;;6.15;3.13;;;;;;;16.64;100.00;95846.75;1036297;28;20018;-49
2021/07/07 01:16:49;;;;;;;4.70;3.40;;;;;;;16.65;100.00;95851.06;1036224;28;20061;-48
2021/07/07 01:17:21;;;;;;;7.35;3.38;;;;;;;16.67;100.00;95846.47;1036112;28;20093;-48
2021/07/07 01:17:51;;;;;;;6.82;3.00;;;;;;;16.66;100.00;95850.91;1036229;28;20026;-50
2021/07/07 01:18:22;;;;;;;5.88;3.20;;;;;;;16.65;100.00;95851.06;1036146;28;20111;-48
2021/07/07 01:18:54;;;;;;;4.68;3.00;;;;;;;16.63;100.00;95843.28;1036144;28;20022;-48
2021/07/07 01:19:24;;;;;;;5.82;3.00;;;;;;;16.65;100.00;95845.78;1036156;28;20395;-49
2021/07/07 01:19:56;;;;;;;7.78;3.50;;;;;;;16.65;100.00;95843.13;1036066;28;20029;-48
2021/07/07 01:20:26;;;;;;;5.93;3.35;;;;;;;16.64;100.00;95844.09;1036206;28;20029;-48
2021/07/07 01:20:57;;;;;;;5.60;3.10;;;;;;;16.62;100.00;95846.06;1036278;28;20459;-48
2021/07/07 01:21:28;;;;;;;4.18;2.97;;;;;;;16.59;100.00;95836.63;1035977;28;20014;-48
2021/07/07 01:21:59;;;;;;;5.45;2.70;;;;;;;16.65;100.00;95840.50;1036122;28;20030;-48
2021/07/07 01:22:30;;;;;;;4.00;2.92;;;;;;;16.62;100.00;95846.06;1036137;28;20018;-49
2021/07/07 01:23:02;;;;;;;5.63;3.25;;;;;;;16.59;100.00;95846.34;1036275;28;20025;-49
2021/07/07 01:23:33;;;;;;;7.32;3.17;;;;;;;16.61;100.00;95845.25;1035620;28;20022;-48
2021/07/07 01:24:04;;;;;;;6.43;3.42;;;;;;;16.64;100.00;95847.56;1035837;28;20479;-48
2021/07/07 01:24:35;;;;;;;5.53;3.42;;;;;;;16.66;100.00;95848.25;1036195;28;20064;-47
2021/07/07 01:25:06;;;;;;;5.97;2.88;;;;;;;16.67;100.00;95844.63;1036177;28;20025;-51
2021/07/07 01:25:38;;;;;;;9.00;3.58;;;;;;;16.68;100.00;95848.13;1036033;28;20022;-49
2021/07/07 01:26:09;;;;;;;6.65;2.78;;;;;;;16.68;100.00;95845.47;1036154;28;20026;-48
2021/07/07 01:26:40;;;;;;;8.68;3.42;;;;;;;16.67;100.00;95847.28;1036189;28;20014;-49
2021/07/07 01:27:11;;;;;;;5.68;3.15;;;;;;;16.67;100.00;95843.81;1036287;28;20013;-49
2021/07/07 01:27:42;;;;;;;4.55;3.20;;;;;;;16.68;100.00;95834.88;1036065;28;20010;-47
2021/07/07 01:28:16;;;;;;;6.95;3.55;;;;;;;16.69;100.00;95844.50;1036237;28;20020;-48
2021/07/07 01:28:47;;;;;;;7.90;3.53;;;;;;;16.67;100.00;95843.81;1036155;28;20010;-49
2021/07/07 01:29:18;;;;;;;4.53;3.38;;;;;;;16.69;100.00;95847.97;1036180;28;20014;-48
2021/07/07 01:29:48;;;;;;;5.13;3.17;;;;;;;16.68;100.00;95850.75;1036066;28;20018;-48
2021/07/07 01:30:21;;;;;;;6.22;3.15;;;;;;;16.66;100.00;95845.59;1036222;28;20505;-49
2021/07/07 01:30:52;;;;;;;6.43;3.13;;;;;;;16.66;100.00;95852.72;1036132;28;20026;-49
2021/07/07 01:31:22;;;;;;;4.47;3.13;;;;;;;16.63;100.00;95845.06;1036058;28;20021;-49
2021/07/07 01:31:53;;;;;;;6.68;3.40;;;;;;;16.64;100.00;95852.88;1036017;28;20021;-48
2021/07/07 01:32:24;;;;;;;7.43;3.30;;;;;;;16.69;100.00;95847.16;1036079;28;20097;-48
2021/07/07 01:32:54;;;;;;;5.55;3.17;;;;;;;16.69;100.00;95847.16;1036202;28;20530;-49
2021/07/07 01:33:25;;;;;;;5.35;3.30;;;;;;;16.71;100.00;95845.19;1035991;28;20044;-47
2021/07/07 01:33:56;;;;;;;6.32;3.35;;;;;;;16.70;100.00;95838.22;1035534;28;20093;-48
2021/07/07 01:34:26;;;;;;;7.25;3.25;;;;;;;16.73;100.00;95837.09;1036209;28;20056;-49
2021/07/07 01:34:57;;;;;;;5.93;3.67;;;;;;;16.72;100.00;95833.59;1036140;28;20018;-48
2021/07/07 01:35:28;;;;;;;6.93;3.75;;;;;;;16.73;100.00;95831.81;1036223;28;20080;-49
2021/07/07 01:35:59;;;;;;;6.90;3.33;;;;;;;16.72;100.00;95828.31;1035751;28;20021;-50
2021/07/07 01:36:31;;;;;;;4.63;3.20;;;;;;;16.72;100.00;95815.06;1035984;28;20491;-48
2021/07/07 01:37:02;;;;;;;5.70;3.40;;;;;;;16.75;100.00;95824.56;1036189;28;20016;-48
2021/07/07 01:37:33;;;;;;;3.80;2.47;;;;;;;16.72;100.00;95825.66;1036106;28;20025;-49
2021/07/07 01:38:04;;;;;;;4.43;2.42;;;;;;;16.70;100.00;95823.19;1036058;28;20066;-49
2021/07/07 01:38:34;;;;;;;5.75;3.10;;;;;;;16.73;100.00;95821.22;1036025;28;20092;-51
2021/07/07 01:39:07;;;;;;;5.07;2.90;;;;;;;16.77;100.00;95825.22;1036153;28;20468;-49
2021/07/07 01:39:38;;;;;;;4.30;3.10;;;;;;;16.74;100.00;95830.81;1036098;28;20014;-49
2021/07/07 01:40:10;;;;;;;6.18;3.00;;;;;;;16.74;100.00;95823.69;1036000;28;20024;-50
2021/07/07 01:40:41;;;;;;;5.22;3.10;;;;;;;16.71;100.00;95827.47;1036023;28;20018;-49
2021/07/07 01:41:13;;;;;;;4.38;3.50;;;;;;;16.73;100.00;95827.34;1036026;28;20431;-47
2021/07/07 01:41:44;;;;;;;4.97;3.13;;;;;;;16.73;100.00;95834.44;1036299;28;20387;-49
2021/07/07 01:42:14;;;;;;;5.88;3.67;;;;;;;16.70;100.00;95828.47;1037228;28;20013;-50
2021/07/07 01:42:45;;;;;;;5.20;3.40;;;;;;;16.70;100.00;95833.78;1036044;28;20052;-49
2021/07/07 01:43:16;;;;;;;6.82;3.75;;;;;;;16.67;100.00;95828.78;1036172;28;20095;-48
2021/07/07 01:43:46;;;;;;;5.65;3.22;;;;;;;16.63;100.00;95837.13;1035389;28;20010;-48
2021/07/07 01:44:17;;;;;;;4.55;3.47;;;;;;;16.66;100.00;95836.84;1036106;28;20017;-49
2021/07/07 01:44:47;;;;;;;5.85;3.80;;;;;;;16.61;100.00;95837.31;1035970;28;20099;-49
2021/07/07 01:45:20;;;;;;;8.25;4.38;;;;;;;16.60;100.00;95832.16;1036143;28;20136;-49
2021/07/07 01:45:51;;;;;;;17.95;5.80;;;;;;;16.60;100.00;95832.16;1036023;28;20046;-50
2021/07/07 01:46:22;;;;;;;8.52;4.70;;;;;;;16.52;100.00;95835.53;1036152;28;20502;-49
2021/07/07 01:46:52;;;;;;;9.13;5.88;;;;;;;16.57;100.00;95832.44;1035938;28;20024;-50
2021/07/07 01:47:23;;;;;;;9.48;6.38;;;;;;;16.61;100.00;95836.44;1036120;28;20408;-48
2021/07/07 01:47:54;;;;;;;9.70;5.60;;;;;;;16.58;100.00;95826.19;1036042;28;20049;-48
2021/07/07 01:48:25;;;;;;;10.07;5.65;;;;;;;16.56;100.00;95834.25;1031739;28;20014;-49
2021/07/07 01:48:56;;;;;;;7.55;4.20;;;;;;;16.57;100.00;95830.63;1031656;28;20109;-48
2021/07/07 01:49:26;;;;;;;9.45;5.32;;;;;;;16.57;100.00;95833.25;1031807;28;20588;-49
2021/07/07 01:49:57;;;;;;;7.00;5.60;;;;;;;16.60;100.00;95829.50;1031908;28;20435;-51
2021/07/07 01:50:28;;;;;;;7.57;4.80;;;;;;;16.58;100.00;95829.66;1036145;28;20097;-49
2021/07/07 01:50:59;;;;;;;5.95;5.22;;;;;;;16.60;100.00;95827.69;1035961;28;20017;-49
2021/07/07 01:51:30;;;;;;;5.15;4.50;;;;;;;16.61;100.00;95825.88;1036135;28;20017;-48
2021/07/07 01:52:00;;;;;;;6.63;4.45;;;;;;;16.61;100.00;95826.72;1035964;28;20123;-48
2021/07/07 01:52:31;;;;;;;6.10;4.60;;;;;;;16.66;100.00;95823.63;1036037;28;20100;-50
2021/07/07 01:53:02;;;;;;;6.13;4.55;;;;;;;16.64;100.00;95815.00;1035950;28;20025;-48
2021/07/07 01:53:33;;;;;;;8.85;4.38;;;;;;;16.62;100.00;95814.31;1035592;28;20021;-51
2021/07/07 01:54:04;;;;;;;7.53;5.07;;;;;;;16.61;100.00;95815.28;1035741;28;20017;-49
2021/07/07 01:54:35;;;;;;;6.47;5.15;;;;;;;16.61;100.00;95815.28;1036149;28;20109;-48
2021/07/07 01:55:06;;;;;;;8.40;5.00;;;;;;;16.59;100.00;95814.59;1036012;28;20026;-49
2021/07/07 01:55:37;;;;;;;7.00;5.13;;;;;;;16.60;100.00;95821.56;1036155;28;20080;-50
2021/07/07 01:56:08;;;;;;;7.10;4.60;;;;;;;16.64;100.00;95818.47;1036015;28;20422;-48
2021/07/07 01:56:38;;;;;;;12.38;4.80;;;;;;;16.63;100.00;95823.91;1036133;28;20010;-47
2021/07/07 01:57:09;;;;;;;5.20;4.50;;;;;;;16.60;100.00;95814.47;1035973;28;20487;-51
2021/07/07 01:57:47;;;;;;;8.25;4.60;;;;;;;16.59;100.00;95815.47;1036143;28;20026;-49
2021/07/07 01:58:18;;;;;;;5.97;3.95;;;;;;;16.62;100.00;95815.16;1035989;28;20040;-49
2021/07/07 01:58:48;;;;;;;6.00;3.90;;;;;;;16.62;100.00;95817.78;1036113;28;20088;-47
2021/07/07 01:59:19;;;;;;;6.05;3.78;;;;;;;16.60;100.00;95817.09;1035957;28;20395;-49
2021/07/07 01:59:49;;;;;;;5.82;4.03;;;;;;;16.59;100.00;95827.84;1035985;28;20468;-49
2021/07/07 02:00:22;;;;;;;3.72;3.15;;;;;;;16.58;100.00;95812.97;1035981;28;20017;-48
2021/07/07 02:00:53;;;;;;;4.00;3.17;;;;;;;16.57;100.00;95812.09;1036105;28;20510;-51
2021/07/07 02:01:24;;;;;;;3.88;3.08;;;;;;;16.59;100.00;95817.25;1035755;28;20024;-48
2021/07/07 02:01:55;;;;;;;4.43;3.50;;;;;;;16.58;100.00;95823.53;1036030;28;20037;-46
2021/07/07 02:02:26;;;;;;;4.93;3.00;;;;;;;16.58;100.00;95816.44;1035990;28;20025;-48
2021/07/07 02:02:57;;;;;;;12.52;4.07;;;;;;;16.55;100.00;95818.53;1036037;28;20024;-48
2021/07/07 02:03:27;;;;;;;4.93;3.55;;;;;;;16.57;100.00;95816.56;1035724;28;20026;-51
2021/07/07 02:03:58;;;;;;;5.28;3.20;;;;;;;16.58;100.00;95810.31;1035529;28;20024;-49
2021/07/07 02:04:28;;;;;;;6.20;3.60;;;;;;;16.57;100.00;95806.81;1036053;28;20013;-49
2021/07/07 02:04:59;;;;;;;4.97;3.53;;;;;;;16.51;100.00;95808.25;1036041;28;20017;-47
2021/07/07 02:05:33;;;;;;;4.28;3.40;;;;;;;16.55;100.00;95813.25;1031617;28;20011;-51
2021/07/07 02:06:04;;;;;;;6.38;3.67;;;;;;;16.56;100.00;95812.28;1031632;28;20010;-49
2021/07/07 02:06:35;;;;;;;9.40;4.20;;;;;;;16.56;100.00;95818.41;1031782;28;20034;-48
2021/07/07 02:07:06;;;;;;;4.60;3.60;;;;;;;16.55;100.00;95807.97;1032553;28;20089;-50
2021/07/07 02:07:37;;;;;;;5.53;3.22;;;;;;;16.52;100.00;95809.09;1035978;28;20376;-49
2021/07/07 02:08:08;;;;;;;5.22;3.65;;;;;;;16.52;100.00;95809.09;1035946;28;20101;-52
2021/07/07 02:08:39;;;;;;;6.85;3.50;;;;;;;16.52;100.00;95804.63;1036162;28;20533;-48
2021/07/07 02:09:10;;;;;;;5.60;3.95;;;;;;;16.52;100.00;95812.56;1036013;28;20068;-51
2021/07/07 02:09:40;;;;;;;6.70;3.85;;;;;;;16.51;100.00;95804.78;1035923;28;20012;-48
2021/07/07 02:10:13;;;;;;;10.70;4.38;;;;;;;16.58;100.00;95802.38;1035960;28;20014;-48
2021/07/07 02:10:43;;;;;;;5.78;3.30;;;;;;;16.55;100.00;95800.03;1036091;28;20018;-47
2021/07/07 02:11:14;;;;;;;4.30;3.50;;;;;;;16.49;100.00;95801.44;1035925;28;20025;-50
2021/07/07 02:11:47;;;;;;;6.15;3.28;;;;;;;16.48;100.00;95802.44;1035950;28;20093;-48
2021/07/07 02:12:17;;;;;;;5.03;3.60;;;;;;;16.49;100.00;95802.28;1035839;28;20014;-48
2021/07/07 02:12:48;;;;;;;4.88;3.50;;;;;;;16.49;100.00;95799.63;1036136;28;20037;-49
2021/07/07 02:13:19;;;;;;;6.28;3.40;;;;;;;16.52;100.00;95799.34;1036042;28;20010;-49
2021/07/07 02:13:49;;;;;;;4.78;3.70;;;;;;;16.54;100.00;95803.66;1035247;28;20544;-49
2021/07/07 02:14:20;;;;;;;10.50;4.07;;;;;;;16.56;100.00;95804.34;1035887;28;20414;-48
2021/07/07 02:14:51;;;;;;;6.28;3.80;;;;;;;16.58;100.00;95792.63;1036089;28;20025;-49
2021/07/07 02:15:24;;;;;;;5.13;3.45;;;;;;;16.58;100.00;95795.28;1036025;28;20014;-51
2021/07/07 02:15:55;;;;;;;9.32;4.05;;;;;;;16.60;100.00;95795.13;1035973;28;20018;-49
2021/07/07 02:16:25;;;;;;;7.00;3.97;;;;;;;16.57;100.00;95796.22;1036146;28;20089;-47
2021/07/07 02:16:56;;;;;;;4.90;3.53;;;;;;;16.49;100.00;95796.97;1036013;28;20030;-49
2021/07/07 02:17:27;;;;;;;5.50;4.00;;;;;;;16.47;100.00;95798.94;1036024;28;20014;-49
2021/07/07 02:17:58;;;;;;;5.03;4.20;;;;;;;16.49;100.00;95790.88;1035857;28;20411;-48
2021/07/07 02:18:29;;;;;;;7.65;4.90;;;;;;;16.48;100.00;95800.63;1036085;28;20018;-49
2021/07/07 02:18:59;;;;;;;6.97;4.32;;;;;;;16.49;100.00;95798.81;1036098;28;20022;-48
2021/07/07 02:19:30;;;;;;;8.25;4.40;;;;;;;16.52;100.00;95799.34;1036060;28;20014;-51
2021/07/07 02:20:01;;;;;;;5.65;4.40;;;;;;;16.51;100.00;95795.00;1035868;28;20017;-48
2021/07/07 02:20:33;;;;;;;4.82;3.70;;;;;;;16.50;100.00;95803.94;1035855;28;20069;-49
2021/07/07 02:21:04;;;;;;;4.93;3.70;;;;;;;16.47;100.00;95798.94;1036123;28;20026;-48
2021/07/07 02:21:35;;;;;;;5.93;3.70;;;;;;;16.47;100.00;95801.59;1035992;28;20472;-50
2021/07/07 02:22:05;;;;;;;5.18;3.80;;;;;;;16.51;100.00;95797.66;1035828;28;20049;-49
2021/07/07 02:22:37;;;;;;;7.47;3.50;;;;;;;16.52;100.00;95804.63;1035961;28;20034;-48
2021/07/07 02:23:09;;;;;;;7.65;3.55;;;;;;;16.56;100.00;95809.63;1036072;28;20045;-49
2021/07/07 02:23:39;;;;;;;4.88;3.38;;;;;;;16.56;100.00;95810.47;1035396;28;20531;-47
2021/07/07 02:24:10;;;;;;;6.70;3.90;;;;;;;16.52;100.00;95807.28;1035861;28;20022;-48